Newington, Connecticut
Current Conditions -  °F | °C
As of 10:53 AM on Wednesday 28 Jan 2015 (Local Time) from KHFD Reporting Station
Clear Clear  
Wind Chill: -13°   Ceiling: Unl
Heat Index: -7°   Visibility: 10mi
Dew Point: -15°   Wind: 12mph
Humidity: 52%   Direction: 10°N
Pressure: 30.02"   Gusts: NA
Location:  41.7°N, 72.73°W
Report Text: KHFD 281553Z 01010KT 10SM CLR M07/M15 A3002 RMK AO2 SLP164 T10671150 $
Loading
Personal Weather Stations






























Interactive Weather Map New forecast layout! Learn more

10-Day Weather Forecast

Advertisements
Track Severe Weather on mobile